sensor_id;sensor_type;location;lat;lon;timestamp;pressure;altitude;pressure_sealevel;temperature;humidity
48790;BME280;41718;51.980;5.734;2022-10-16T00:02:01;100779.50;;;11.07;100.00
48790;BME280;41718;51.980;5.734;2022-10-16T00:07:03;100775.19;;;11.07;100.00
48790;BME280;41718;51.980;5.734;2022-10-16T00:12:04;100772.63;;;11.09;100.00
48790;BME280;41718;51.980;5.734;2022-10-16T00:17:07;100782.06;;;11.04;100.00
48790;BME280;41718;51.980;5.734;2022-10-16T00:22:09;100789.59;;;10.84;100.00
48790;BME280;41718;51.980;5.734;2022-10-16T00:27:10;100780.44;;;11.13;100.00
48790;BME280;41718;51.980;5.734;2022-10-16T00:32:12;100787.41;;;11.18;100.00
48790;BME280;41718;51.980;5.734;2022-10-16T00:37:13;100779.78;;;11.31;100.00
48790;BME280;41718;51.980;5.734;2022-10-16T00:42:17;100784.84;;;11.22;100.00
48790;BME280;41718;51.980;5.734;2022-10-16T00:47:26;100783.91;;;11.15;100.00
48790;BME280;41718;51.980;5.734;2022-10-16T00:52:29;100776.94;;;11.11;100.00
48790;BME280;41718;51.980;5.734;2022-10-16T00:57:31;100783.84;;;11.08;100.00
48790;BME280;41718;51.980;5.734;2022-10-16T01:02:32;100783.03;;;11.13;100.00
48790;BME280;41718;51.980;5.734;2022-10-16T01:08:02;100785.63;;;11.15;100.00
48790;BME280;41718;51.980;5.734;2022-10-16T01:13:11;100787.41;;;11.21;100.00
48790;BME280;41718;51.980;5.734;2022-10-16T01:18:19;100781.44;;;11.23;100.00
48790;BME280;41718;51.980;5.734;2022-10-16T01:23:36;100777.97;;;11.24;100.00
48790;BME280;41718;51.980;5.734;2022-10-16T01:28:51;100763.31;;;11.28;100.00
48790;BME280;41718;51.980;5.734;2022-10-16T01:33:59;100780.63;;;11.30;100.00
48790;BME280;41718;51.980;5.734;2022-10-16T01:39:02;100782.34;;;11.30;100.00
48790;BME280;41718;51.980;5.734;2022-10-16T01:44:08;100771.88;;;11.21;100.00
48790;BME280;41718;51.980;5.734;2022-10-16T01:49:11;100773.75;;;11.32;100.00
48790;BME280;41718;51.980;5.734;2022-10-16T01:54:13;100773.69;;;11.28;100.00
48790;BME280;41718;51.980;5.734;2022-10-16T01:59:18;100775.50;;;11.36;100.00
48790;BME280;41718;51.980;5.734;2022-10-16T02:04:25;100771.22;;;11.38;100.00
48790;BME280;41718;51.980;5.734;2022-10-16T02:09:30;100757.38;;;11.36;100.00
48790;BME280;41718;51.980;5.734;2022-10-16T02:14:37;100760.91;;;11.45;100.00
48790;BME280;41718;51.980;5.734;2022-10-16T02:19:39;100762.72;;;11.55;100.00
48790;BME280;41718;51.980;5.734;2022-10-16T02:24:59;100783.41;;;11.47;100.00
48790;BME280;41718;51.980;5.734;2022-10-16T02:30:15;100774.66;;;11.36;100.00
48790;BME280;41718;51.980;5.734;2022-10-16T02:35:22;100767.75;;;11.38;100.00
48790;BME280;41718;51.980;5.734;2022-10-16T02:40:25;100767.81;;;11.44;100.00
48790;BME280;41718;51.980;5.734;2022-10-16T02:45:28;100778.09;;;11.36;100.00
48790;BME280;41718;51.980;5.734;2022-10-16T02:50:30;100771.25;;;11.41;100.00
48790;BME280;41718;51.980;5.734;2022-10-16T02:55:31;100777.91;;;11.18;100.00
48790;BME280;41718;51.980;5.734;2022-10-16T03:00:33;100778.97;;;11.35;100.00
48790;BME280;41718;51.980;5.734;2022-10-16T03:05:35;100775.63;;;11.50;100.00
48790;BME280;41718;51.980;5.734;2022-10-16T03:10:36;100775.47;;;11.32;100.00
48790;BME280;41718;51.980;5.734;2022-10-16T03:15:38;100772.81;;;11.27;100.00
48790;BME280;41718;51.980;5.734;2022-10-16T03:20:39;100770.22;;;11.26;100.00
48790;BME280;41718;51.980;5.734;2022-10-16T03:25:41;100779.72;;;11.25;100.00
48790;BME280;41718;51.980;5.734;2022-10-16T03:30:43;100774.47;;;11.22;100.00
48790;BME280;41718;51.980;5.734;2022-10-16T03:35:51;100777.13;;;11.27;100.00
48790;BME280;41718;51.980;5.734;2022-10-16T03:40:52;100775.34;;;11.20;100.00
48790;BME280;41718;51.980;5.734;2022-10-16T03:45:54;100780.53;;;11.23;100.00
48790;BME280;41718;51.980;5.734;2022-10-16T03:50:55;100791.81;;;11.26;100.00
48790;BME280;41718;51.980;5.734;2022-10-16T03:55:57;100780.63;;;11.29;100.00
48790;BME280;41718;51.980;5.734;2022-10-16T04:00:59;100778.84;;;11.25;100.00
48790;BME280;41718;51.980;5.734;2022-10-16T04:06:00;100798.59;;;11.17;100.00
48790;BME280;41718;51.980;5.734;2022-10-16T04:11:03;100807.38;;;11.29;100.00
48790;BME280;41718;51.980;5.734;2022-10-16T04:16:04;100816.91;;;11.32;100.00
48790;BME280;41718;51.980;5.734;2022-10-16T04:21:06;100821.22;;;11.31;100.00
48790;BME280;41718;51.980;5.734;2022-10-16T04:26:11;100828.06;;;11.25;100.00
48790;BME280;41718;51.980;5.734;2022-10-16T04:31:13;100844.53;;;11.31;100.00
48790;BME280;41718;51.980;5.734;2022-10-16T04:36:14;100852.16;;;11.21;100.00
48790;BME280;41718;51.980;5.734;2022-10-16T04:41:16;100850.38;;;11.17;100.00
48790;BME280;41718;51.980;5.734;2022-10-16T04:46:17;100846.91;;;11.16;100.00
48790;BME280;41718;51.980;5.734;2022-10-16T04:51:19;100845.31;;;11.24;100.00
48790;BME280;41718;51.980;5.734;2022-10-16T04:56:20;100849.63;;;11.24;100.00
48790;BME280;41718;51.980;5.734;2022-10-16T05:01:22;100866.75;;;11.15;100.00
48790;BME280;41718;51.980;5.734;2022-10-16T05:06:25;100868.28;;;11.00;100.00
48790;BME280;41718;51.980;5.734;2022-10-16T05:11:27;100868.41;;;11.09;100.00
48790;BME280;41718;51.980;5.734;2022-10-16T05:16:29;100872.56;;;10.98;100.00
48790;BME280;41718;51.980;5.734;2022-10-16T05:21:32;100884.56;;;10.91;100.00
48790;BME280;41718;51.980;5.734;2022-10-16T05:26:33;100880.16;;;10.84;100.00
48790;BME280;41718;51.980;5.734;2022-10-16T05:31:35;100894.78;;;10.82;100.00
48790;BME280;41718;51.980;5.734;2022-10-16T05:36:37;100904.34;;;10.87;100.00
48790;BME280;41718;51.980;5.734;2022-10-16T05:41:44;100910.38;;;10.86;100.00
48790;BME280;41718;51.980;5.734;2022-10-16T05:46:46;100909.44;;;10.81;100.00
48790;BME280;41718;51.980;5.734;2022-10-16T05:51:48;100909.38;;;10.77;100.00
48790;BME280;41718;51.980;5.734;2022-10-16T05:56:49;100910.22;;;10.76;100.00
48790;BME280;41718;51.980;5.734;2022-10-16T06:01:54;100920.47;;;10.68;100.00
48790;BME280;41718;51.980;5.734;2022-10-16T06:06:59;100921.44;;;10.76;100.00
48790;BME280;41718;51.980;5.734;2022-10-16T06:12:02;100919.81;;;10.83;100.00
48790;BME280;41718;51.980;5.734;2022-10-16T06:17:09;100945.81;;;10.91;100.00
48790;BME280;41718;51.980;5.734;2022-10-16T06:22:11;100941.50;;;10.90;100.00
48790;BME280;41718;51.980;5.734;2022-10-16T06:27:15;100937.19;;;10.92;100.00
48790;BME280;41718;51.980;5.734;2022-10-16T06:32:17;100938.94;;;10.93;100.00
48790;BME280;41718;51.980;5.734;2022-10-16T06:37:18;100953.69;;;10.97;100.00
48790;BME280;41718;51.980;5.734;2022-10-16T06:42:20;100970.31;;;11.12;100.00
48790;BME280;41718;51.980;5.734;2022-10-16T06:47:22;100979.81;;;11.12;100.00
48790;BME280;41718;51.980;5.734;2022-10-16T06:52:23;100983.44;;;11.25;100.00
48790;BME280;41718;51.980;5.734;2022-10-16T06:57:28;100993.81;;;11.26;100.00
48790;BME280;41718;51.980;5.734;2022-10-16T07:02:36;101002.44;;;11.28;100.00
48790;BME280;41718;51.980;5.734;2022-10-16T07:07:46;101015.59;;;11.40;100.00
48790;BME280;41718;51.980;5.734;2022-10-16T07:12:53;101028.59;;;11.44;100.00
48790;BME280;41718;51.980;5.734;2022-10-16T07:17:56;101029.59;;;11.53;100.00
48790;BME280;41718;51.980;5.734;2022-10-16T07:22:58;101046.97;;;11.62;100.00
48790;BME280;41718;51.980;5.734;2022-10-16T07:28:00;101060.06;;;11.71;100.00
48790;BME280;41718;51.980;5.734;2022-10-16T07:33:05;101077.59;;;11.87;100.00
48790;BME280;41718;51.980;5.734;2022-10-16T07:38:06;101087.16;;;11.91;100.00
48790;BME280;41718;51.980;5.734;2022-10-16T07:43:09;101091.59;;;12.00;100.00
48790;BME280;41718;51.980;5.734;2022-10-16T07:48:11;101091.78;;;12.14;100.00
48790;BME280;41718;51.980;5.734;2022-10-16T07:53:14;101111.78;;;12.24;100.00
48790;BME280;41718;51.980;5.734;2022-10-16T07:58:16;101109.31;;;12.36;100.00
48790;BME280;41718;51.980;5.734;2022-10-16T08:03:19;101121.47;;;12.40;100.00
48790;BME280;41718;51.980;5.734;2022-10-16T08:08:24;101133.78;;;12.57;100.00
48790;BME280;41718;51.980;5.734;2022-10-16T08:13:25;101154.59;;;12.60;100.00
48790;BME280;41718;51.980;5.734;2022-10-16T08:18:28;101158.13;;;12.66;100.00
48790;BME280;41718;51.980;5.734;2022-10-16T08:23:31;101169.31;;;12.61;100.00
48790;BME280;41718;51.980;5.734;2022-10-16T08:28:44;101183.19;;;12.64;100.00
48790;BME280;41718;51.980;5.734;2022-10-16T08:33:55;101195.19;;;12.56;100.00
48790;BME280;41718;51.980;5.734;2022-10-16T08:38:57;101205.81;;;12.76;100.00
48790;BME280;41718;51.980;5.734;2022-10-16T08:49:12;101225.03;;;12.92;100.00
48790;BME280;41718;51.980;5.734;2022-10-16T08:54:44;101240.81;;;13.10;100.00
48790;BME280;41718;51.980;5.734;2022-10-16T08:59:51;101248.66;;;13.15;100.00
48790;BME280;41718;51.980;5.734;2022-10-16T09:05:38;101265.97;;;13.11;100.00
48790;BME280;41718;51.980;5.734;2022-10-16T09:21:32;101288.03;;;13.45;100.00
48790;BME280;41718;51.980;5.734;2022-10-16T09:26:37;101289.81;;;13.51;100.00
48790;BME280;41718;51.980;5.734;2022-10-16T09:31:42;101300.34;;;13.66;100.00
48790;BME280;41718;51.980;5.734;2022-10-16T09:36:54;101309.91;;;13.70;100.00
48790;BME280;41718;51.980;5.734;2022-10-16T09:42:00;101307.47;;;13.84;100.00
48790;BME280;41718;51.980;5.734;2022-10-16T09:47:03;101316.19;;;13.91;100.00
48790;BME280;41718;51.980;5.734;2022-10-16T09:52:12;101330.06;;;13.91;100.00
48790;BME280;41718;51.980;5.734;2022-10-16T09:57:16;101331.91;;;14.04;100.00
48790;BME280;41718;51.980;5.734;2022-10-16T10:02:28;101332.72;;;13.97;100.00
48790;BME280;41718;51.980;5.734;2022-10-16T10:07:33;101336.31;;;14.13;100.00
48790;BME280;41718;51.980;5.734;2022-10-16T10:12:40;101339.84;;;14.20;100.00
48790;BME280;41718;51.980;5.734;2022-10-16T10:17:51;101348.97;;;14.84;100.00
48790;BME280;41718;51.980;5.734;2022-10-16T10:22:56;101355.81;;;14.64;100.00
48790;BME280;41718;51.980;5.734;2022-10-16T10:38:54;101346.75;;;16.25;100.00
48790;BME280;41718;51.980;5.734;2022-10-16T10:44:07;101358.03;;;15.94;100.00
48790;BME280;41718;51.980;5.734;2022-10-16T10:55:01;101363.28;;;16.10;100.00
48790;BME280;41718;51.980;5.734;2022-10-16T11:05:37;101366.75;;;16.71;100.00
48790;BME280;41718;51.980;5.734;2022-10-16T11:10:53;101363.22;;;16.96;100.00
48790;BME280;41718;51.980;5.734;2022-10-16T11:16:03;101371.97;;;16.86;100.00
48790;BME280;41718;51.980;5.734;2022-10-16T11:21:13;101382.03;;;17.74;100.00
48790;BME280;41718;51.980;5.734;2022-10-16T11:26:21;101383.56;;;18.09;100.00
48790;BME280;41718;51.980;5.734;2022-10-16T11:31:40;101388.41;;;17.20;100.00
48790;BME280;41718;51.980;5.734;2022-10-16T11:42:43;101374.31;;;17.50;100.00
48790;BME280;41718;51.980;5.734;2022-10-16T11:47:57;101393.69;;;17.00;100.00
48790;BME280;41718;51.980;5.734;2022-10-16T11:53:16;101395.50;;;16.57;100.00
48790;BME280;41718;51.980;5.734;2022-10-16T12:03:49;101401.56;;;16.65;100.00
48790;BME280;41718;51.980;5.734;2022-10-16T12:09:00;101407.66;;;16.82;100.00
48790;BME280;41718;51.980;5.734;2022-10-16T12:19:23;101422.44;;;17.05;100.00
48790;BME280;41718;51.980;5.734;2022-10-16T12:24:43;101417.16;;;17.21;100.00
48790;BME280;41718;51.980;5.734;2022-10-16T12:29:48;101413.78;;;16.72;100.00
48790;BME280;41718;51.980;5.734;2022-10-16T12:34:57;101420.72;;;16.20;100.00
48790;BME280;41718;51.980;5.734;2022-10-16T12:40:31;101416.38;;;16.32;100.00
48790;BME280;41718;51.980;5.734;2022-10-16T12:45:34;101421.59;;;16.43;100.00
48790;BME280;41718;51.980;5.734;2022-10-16T12:50:39;101432.06;;;16.35;100.00
48790;BME280;41718;51.980;5.734;2022-10-16T12:56:22;101423.38;;;16.75;100.00
48790;BME280;41718;51.980;5.734;2022-10-16T13:01:53;101421.63;;;16.80;100.00
48790;BME280;41718;51.980;5.734;2022-10-16T13:24:02;101432.09;;;16.74;100.00
48790;BME280;41718;51.980;5.734;2022-10-16T13:29:10;101428.56;;;16.38;100.00
48790;BME280;41718;51.980;5.734;2022-10-16T13:34:19;101446.88;;;16.46;100.00
48790;BME280;41718;51.980;5.734;2022-10-16T13:39:29;101449.47;;;16.42;100.00
48790;BME280;41718;51.980;5.734;2022-10-16T13:45:00;101452.09;;;16.47;100.00
48790;BME280;41718;51.980;5.734;2022-10-16T13:50:12;101445.97;;;16.60;100.00
48790;BME280;41718;51.980;5.734;2022-10-16T13:55:18;101450.34;;;16.63;100.00
48790;BME280;41718;51.980;5.734;2022-10-16T14:00:28;101449.47;;;16.59;100.00
48790;BME280;41718;51.980;5.734;2022-10-16T14:05:34;101446.00;;;16.48;100.00
48790;BME280;41718;51.980;5.734;2022-10-16T14:10:37;101453.84;;;16.45;100.00
48790;BME280;41718;51.980;5.734;2022-10-16T14:15:47;101464.28;;;16.57;100.00
48790;BME280;41718;51.980;5.734;2022-10-16T14:20:50;101467.75;;;16.35;100.00
48790;BME280;41718;51.980;5.734;2022-10-16T14:26:12;101468.63;;;16.40;100.00
48790;BME280;41718;51.980;5.734;2022-10-16T14:36:25;101460.81;;;16.52;100.00
48790;BME280;41718;51.980;5.734;2022-10-16T14:41:31;101460.78;;;16.17;100.00
48790;BME280;41718;51.980;5.734;2022-10-16T14:46:38;101465.06;;;16.04;100.00
48790;BME280;41718;51.980;5.734;2022-10-16T14:51:43;101469.38;;;15.93;100.00
48790;BME280;41718;51.980;5.734;2022-10-16T15:01:53;101486.78;;;15.85;100.00
48790;BME280;41718;51.980;5.734;2022-10-16T15:06:57;101485.03;;;15.85;100.00
48790;BME280;41718;51.980;5.734;2022-10-16T15:12:07;101478.94;;;15.83;100.00
48790;BME280;41718;51.980;5.734;2022-10-16T15:17:10;101477.16;;;15.75;100.00
48790;BME280;41718;51.980;5.734;2022-10-16T15:22:15;101485.81;;;15.64;100.00
48790;BME280;41718;51.980;5.734;2022-10-16T15:27:19;101485.75;;;15.58;100.00
48790;BME280;41718;51.980;5.734;2022-10-16T15:32:21;101480.50;;;15.43;100.00
48790;BME280;41718;51.980;5.734;2022-10-16T15:37:26;101472.56;;;15.31;100.00
48790;BME280;41718;51.980;5.734;2022-10-16T15:42:28;101476.91;;;15.29;100.00
48790;BME280;41718;51.980;5.734;2022-10-16T15:47:30;101484.69;;;15.18;100.00
48790;BME280;41718;51.980;5.734;2022-10-16T15:52:41;101488.91;;;15.01;100.00
48790;BME280;41718;51.980;5.734;2022-10-16T15:57:43;101487.09;;;14.88;100.00
48790;BME280;41718;51.980;5.734;2022-10-16T16:02:53;101480.00;;;14.74;100.00
48790;BME280;41718;51.980;5.734;2022-10-16T16:08:21;101493.84;;;14.67;100.00
48790;BME280;41718;51.980;5.734;2022-10-16T16:13:23;101495.50;;;14.57;100.00
48790;BME280;41718;51.980;5.734;2022-10-16T16:18:31;101495.47;;;14.53;100.00
48790;BME280;41718;51.980;5.734;2022-10-16T16:23:35;101489.16;;;14.34;100.00
48790;BME280;41718;51.980;5.734;2022-10-16T16:28:43;101488.19;;;14.21;100.00
48790;BME280;41718;51.980;5.734;2022-10-16T16:33:51;101487.19;;;14.09;100.00
48790;BME280;41718;51.980;5.734;2022-10-16T16:38:54;101484.47;;;13.98;100.00
48790;BME280;41718;51.980;5.734;2022-10-16T16:44:02;101494.81;;;13.93;100.00
48790;BME280;41718;51.980;5.734;2022-10-16T16:49:13;101490.41;;;13.86;100.00
48790;BME280;41718;51.980;5.734;2022-10-16T16:54:15;101487.59;;;13.69;100.00
48790;BME280;41718;51.980;5.734;2022-10-16T16:59:19;101487.63;;;13.72;100.00
48790;BME280;41718;51.980;5.734;2022-10-16T17:04:24;101497.06;;;13.66;100.00
48790;BME280;41718;51.980;5.734;2022-10-16T17:09:26;101496.91;;;13.52;100.00
48790;BME280;41718;51.980;5.734;2022-10-16T17:14:29;101478.56;;;13.41;100.00
48790;BME280;41718;51.980;5.734;2022-10-16T17:19:32;101484.47;;;13.30;100.00
48790;BME280;41718;51.980;5.734;2022-10-16T17:24:34;101487.97;;;13.32;100.00
48790;BME280;41718;51.980;5.734;2022-10-16T17:29:38;101493.06;;;13.24;100.00
48790;BME280;41718;51.980;5.734;2022-10-16T17:34:42;101502.56;;;13.22;100.00
48790;BME280;41718;51.980;5.734;2022-10-16T17:39:44;101488.53;;;13.14;100.00
48790;BME280;41718;51.980;5.734;2022-10-16T17:44:52;101471.13;;;13.07;100.00
48790;BME280;41718;51.980;5.734;2022-10-16T17:49:54;101475.44;;;13.06;100.00
48790;BME280;41718;51.980;5.734;2022-10-16T17:54:57;101470.09;;;12.97;100.00
48790;BME280;41718;51.980;5.734;2022-10-16T18:00:00;101489.91;;;12.90;100.00
48790;BME280;41718;51.980;5.734;2022-10-16T18:05:22;101475.94;;;12.82;100.00
48790;BME280;41718;51.980;5.734;2022-10-16T18:22:24;101485.91;;;12.58;100.00
48790;BME280;41718;51.980;5.734;2022-10-16T18:34:20;101496.38;;;12.61;100.00
48790;BME280;41718;51.980;5.734;2022-10-16T18:39:46;101497.16;;;12.57;100.00
48790;BME280;41718;51.980;5.734;2022-10-16T18:44:58;101513.47;;;12.48;100.00
48790;BME280;41718;51.980;5.734;2022-10-16T18:55:59;101529.91;;;12.49;100.00
48790;BME280;41718;51.980;5.734;2022-10-16T19:01:10;101532.53;;;12.52;100.00
48790;BME280;41718;51.980;5.734;2022-10-16T19:06:40;101537.75;;;12.53;100.00
48790;BME280;41718;51.980;5.734;2022-10-16T19:11:46;101527.34;;;12.52;100.00
48790;BME280;41718;51.980;5.734;2022-10-16T19:17:00;101507.50;;;12.54;100.00
48790;BME280;41718;51.980;5.734;2022-10-16T19:22:15;101510.97;;;12.54;100.00
48790;BME280;41718;51.980;5.734;2022-10-16T19:27:58;101491.00;;;12.52;100.00
48790;BME280;41718;51.980;5.734;2022-10-16T19:33:07;101495.25;;;12.46;100.00
48790;BME280;41718;51.980;5.734;2022-10-16T19:38:19;101508.19;;;12.43;100.00
48790;BME280;41718;51.980;5.734;2022-10-16T19:43:21;101510.81;;;12.46;100.00
48790;BME280;41718;51.980;5.734;2022-10-16T19:48:26;101491.00;;;12.50;100.00
48790;BME280;41718;51.980;5.734;2022-10-16T19:53:31;101509.03;;;12.42;100.00
48790;BME280;41718;51.980;5.734;2022-10-16T19:58:43;101503.78;;;12.41;100.00
48790;BME280;41718;51.980;5.734;2022-10-16T20:03:46;101515.09;;;12.43;100.00
48790;BME280;41718;51.980;5.734;2022-10-16T20:08:50;101518.78;;;12.56;100.00
48790;BME280;41718;51.980;5.734;2022-10-16T20:14:19;101505.00;;;12.60;100.00
48790;BME280;41718;51.980;5.734;2022-10-16T20:19:26;101475.00;;;12.77;100.00
48790;BME280;41718;51.980;5.734;2022-10-16T20:24:29;101470.03;;;12.92;100.00
48790;BME280;41718;51.980;5.734;2022-10-16T20:29:34;101481.25;;;12.88;100.00
48790;BME280;41718;51.980;5.734;2022-10-16T20:34:36;101489.06;;;12.90;100.00
48790;BME280;41718;51.980;5.734;2022-10-16T20:39:37;101494.44;;;13.04;100.00
48790;BME280;41718;51.980;5.734;2022-10-16T20:44:39;101505.16;;;13.22;100.00
48790;BME280;41718;51.980;5.734;2022-10-16T20:49:40;101489.38;;;13.11;100.00
48790;BME280;41718;51.980;5.734;2022-10-16T20:54:45;101483.31;;;13.11;100.00
48790;BME280;41718;51.980;5.734;2022-10-16T20:59:47;101492.66;;;12.99;100.00
48790;BME280;41718;51.980;5.734;2022-10-16T21:04:49;101488.53;;;13.12;100.00
48790;BME280;41718;51.980;5.734;2022-10-16T21:09:53;101489.28;;;13.05;100.00
48790;BME280;41718;51.980;5.734;2022-10-16T21:14:55;101472.94;;;13.14;100.00
48790;BME280;41718;51.980;5.734;2022-10-16T21:20:15;101485.00;;;13.09;100.00
48790;BME280;41718;51.980;5.734;2022-10-16T21:25:17;101489.41;;;13.14;100.00
48790;BME280;41718;51.980;5.734;2022-10-16T21:30:20;101498.91;;;13.11;100.00
48790;BME280;41718;51.980;5.734;2022-10-16T21:35:24;101495.28;;;12.99;100.00
48790;BME280;41718;51.980;5.734;2022-10-16T21:40:28;101473.28;;;12.79;100.00
48790;BME280;41718;51.980;5.734;2022-10-16T21:45:32;101477.50;;;12.71;100.00
48790;BME280;41718;51.980;5.734;2022-10-16T21:50:37;101458.34;;;12.64;100.00
48790;BME280;41718;51.980;5.734;2022-10-16T21:55:47;101441.84;;;12.59;100.00
48790;BME280;41718;51.980;5.734;2022-10-16T22:00:52;101434.06;;;12.59;100.00
48790;BME280;41718;51.980;5.734;2022-10-16T22:06:06;101429.81;;;12.66;100.00
48790;BME280;41718;51.980;5.734;2022-10-16T22:11:09;101427.34;;;12.75;100.00
48790;BME280;41718;51.980;5.734;2022-10-16T22:16:14;101429.81;;;12.66;100.00
48790;BME280;41718;51.980;5.734;2022-10-16T22:21:19;101427.75;;;12.45;100.00
48790;BME280;41718;51.980;5.734;2022-10-16T22:26:21;101419.97;;;12.45;100.00
48790;BME280;41718;51.980;5.734;2022-10-16T22:31:26;101409.84;;;12.60;100.00
48790;BME280;41718;51.980;5.734;2022-10-16T22:36:29;101414.97;;;12.59;100.00
48790;BME280;41718;51.980;5.734;2022-10-16T22:41:35;101403.97;;;12.72;100.00
48790;BME280;41718;51.980;5.734;2022-10-16T22:46:39;101411.91;;;12.84;100.00
48790;BME280;41718;51.980;5.734;2022-10-16T22:51:43;101399.81;;;12.85;100.00
48790;BME280;41718;51.980;5.734;2022-10-16T22:56:57;101400.66;;;12.84;100.00
48790;BME280;41718;51.980;5.734;2022-10-16T23:01:59;101402.34;;;12.82;100.00
48790;BME280;41718;51.980;5.734;2022-10-16T23:07:01;101412.69;;;12.77;100.00
48790;BME280;41718;51.980;5.734;2022-10-16T23:12:02;101420.53;;;12.82;100.00
48790;BME280;41718;51.980;5.734;2022-10-16T23:17:04;101423.75;;;12.65;100.00
48790;BME280;41718;51.980;5.734;2022-10-16T23:22:09;101416.94;;;12.72;100.00
48790;BME280;41718;51.980;5.734;2022-10-16T23:27:10;101411.56;;;12.61;100.00
48790;BME280;41718;51.980;5.734;2022-10-16T23:32:12;101391.50;;;12.51;100.00
48790;BME280;41718;51.980;5.734;2022-10-16T23:37:13;101387.09;;;12.45;100.00
48790;BME280;41718;51.980;5.734;2022-10-16T23:42:15;101380.16;;;12.43;100.00
48790;BME280;41718;51.980;5.734;2022-10-16T23:47:16;101370.72;;;12.48;100.00
48790;BME280;41718;51.980;5.734;2022-10-16T23:52:18;101357.75;;;12.48;100.00
48790;BME280;41718;51.980;5.734;2022-10-16T23:57:22;101362.06;;;12.49;100.00
